sensor_id;sensor_type;location;lat;lon;timestamp;pressure;altitude;pressure_sealevel;temperature;humidity
32452;BME280;45528;52.102;5.242;2022-07-17T00:00:48;102394.0;;;19.34;54.39
32452;BME280;45528;52.102;5.242;2022-07-17T00:04:22;102386.0;;;19.27;54.6
32452;BME280;45528;52.102;5.242;2022-07-17T00:06:09;102389.0;;;19.27;54.65
32452;BME280;45528;52.102;5.242;2022-07-17T00:07:55;102387.0;;;19.23;54.69
32452;BME280;45528;52.102;5.242;2022-07-17T00:09:42;102387.0;;;19.21;54.74
32452;BME280;45528;52.102;5.242;2022-07-17T00:11:30;102387.0;;;19.16;54.72
32452;BME280;45528;52.102;5.242;2022-07-17T00:13:17;102384.0;;;19.13;54.91
32452;BME280;45528;52.102;5.242;2022-07-17T00:16:51;102384.0;;;19.02;55.11
32452;BME280;45528;52.102;5.242;2022-07-17T00:18:39;102386.0;;;18.97;55.23
32452;BME280;45528;52.102;5.242;2022-07-17T00:20:27;102387.0;;;18.88;55.52
32452;BME280;45528;52.102;5.242;2022-07-17T00:22:14;102387.0;;;18.86;55.63
32452;BME280;45528;52.102;5.242;2022-07-17T00:24:01;102389.0;;;18.82;55.76
32452;BME280;45528;52.102;5.242;2022-07-17T00:25:48;102392.0;;;18.82;55.75
32452;BME280;45528;52.102;5.242;2022-07-17T00:29:22;102393.0;;;18.86;55.54
32452;BME280;45528;52.102;5.242;2022-07-17T00:31:09;102397.0;;;18.84;55.66
32452;BME280;45528;52.102;5.242;2022-07-17T00:32:57;102398.0;;;18.97;55.41
32452;BME280;45528;52.102;5.242;2022-07-17T00:34:44;102398.0;;;18.86;55.51
32452;BME280;45528;52.102;5.242;2022-07-17T00:36:31;102397.0;;;18.78;55.62
32452;BME280;45528;52.102;5.242;2022-07-17T00:40:05;102393.0;;;18.73;55.8
32452;BME280;45528;52.102;5.242;2022-07-17T00:41:52;102385.0;;;18.75;55.86
32452;BME280;45528;52.102;5.242;2022-07-17T00:43:39;102387.0;;;18.68;55.89
32452;BME280;45528;52.102;5.242;2022-07-17T00:45:26;102387.0;;;18.68;56.03
32452;BME280;45528;52.102;5.242;2022-07-17T00:47:14;102386.0;;;18.61;56.18
32452;BME280;45528;52.102;5.242;2022-07-17T00:49:03;102389.0;;;18.61;56.19
32452;BME280;45528;52.102;5.242;2022-07-17T00:52:37;102384.0;;;18.5;56.43
32452;BME280;45528;52.102;5.242;2022-07-17T00:54:25;102387.0;;;18.52;56.39
32452;BME280;45528;52.102;5.242;2022-07-17T00:56:13;102389.0;;;18.53;56.29
32452;BME280;45528;52.102;5.242;2022-07-17T00:58:04;102384.0;;;18.55;56.2
32452;BME280;45528;52.102;5.242;2022-07-17T00:59:51;102385.0;;;18.54;56.19
32452;BME280;45528;52.102;5.242;2022-07-17T01:01:39;102389.0;;;18.54;56.12
32452;BME280;45528;52.102;5.242;2022-07-17T01:03:26;102392.0;;;18.54;56.09
32452;BME280;45528;52.102;5.242;2022-07-17T01:07:02;102390.0;;;18.56;55.96
32452;BME280;45528;52.102;5.242;2022-07-17T01:08:51;102390.0;;;18.59;55.93
32452;BME280;45528;52.102;5.242;2022-07-17T01:10:38;102390.0;;;18.59;55.78
32452;BME280;45528;52.102;5.242;2022-07-17T01:12:27;102392.0;;;18.61;55.61
32452;BME280;45528;52.102;5.242;2022-07-17T01:14:13;102391.0;;;18.57;55.68
32452;BME280;45528;52.102;5.242;2022-07-17T01:16:01;102390.0;;;18.45;55.86
32452;BME280;45528;52.102;5.242;2022-07-17T01:19:35;102396.0;;;18.34;56.08
32452;BME280;45528;52.102;5.242;2022-07-17T01:21:22;102389.0;;;18.28;56.3
32452;BME280;45528;52.102;5.242;2022-07-17T01:23:09;102392.0;;;18.31;56.19
32452;BME280;45528;52.102;5.242;2022-07-17T01:24:56;102389.0;;;18.34;56.13
32452;BME280;45528;52.102;5.242;2022-07-17T01:26:44;102384.0;;;18.34;56.16
32452;BME280;45528;52.102;5.242;2022-07-17T01:28:32;102385.0;;;18.28;56.23
32452;BME280;45528;52.102;5.242;2022-07-17T01:32:06;102382.0;;;18.23;56.34
32452;BME280;45528;52.102;5.242;2022-07-17T01:33:53;102384.0;;;18.23;56.46
32452;BME280;45528;52.102;5.242;2022-07-17T01:35:40;102384.0;;;18.2;56.43
32452;BME280;45528;52.102;5.242;2022-07-17T01:37:27;102380.0;;;18.13;56.52
32452;BME280;45528;52.102;5.242;2022-07-17T01:39:15;102376.0;;;18.12;56.55
32452;BME280;45528;52.102;5.242;2022-07-17T01:42:49;102370.0;;;18.09;56.71
32452;BME280;45528;52.102;5.242;2022-07-17T01:44:36;102365.0;;;18.09;56.66
32452;BME280;45528;52.102;5.242;2022-07-17T01:46:23;102359.0;;;18.05;56.81
32452;BME280;45528;52.102;5.242;2022-07-17T01:48:10;102357.0;;;18.04;56.79
32452;BME280;45528;52.102;5.242;2022-07-17T01:49:58;102365.0;;;18.09;56.85
32452;BME280;45528;52.102;5.242;2022-07-17T01:51:45;102363.0;;;18.11;56.74
32452;BME280;45528;52.102;5.242;2022-07-17T01:55:19;102364.0;;;18.2;56.48
32452;BME280;45528;52.102;5.242;2022-07-17T01:57:07;102368.0;;;18.11;56.45
32452;BME280;45528;52.102;5.242;2022-07-17T01:58:54;102364.0;;;17.98;56.74
32452;BME280;45528;52.102;5.242;2022-07-17T02:00:42;102366.0;;;18.0;56.68
32452;BME280;45528;52.102;5.242;2022-07-17T02:02:29;102367.0;;;17.97;56.78
32452;BME280;45528;52.102;5.242;2022-07-17T02:04:16;102369.0;;;17.98;56.79
32452;BME280;45528;52.102;5.242;2022-07-17T02:07:50;102364.0;;;18.02;56.68
32452;BME280;45528;52.102;5.242;2022-07-17T02:09:38;102366.0;;;18.07;56.44
32452;BME280;45528;52.102;5.242;2022-07-17T02:11:25;102362.0;;;18.02;56.48
32452;BME280;45528;52.102;5.242;2022-07-17T02:13:12;102362.0;;;18.0;56.48
32452;BME280;45528;52.102;5.242;2022-07-17T02:14:59;102363.0;;;18.02;56.45
32452;BME280;45528;52.102;5.242;2022-07-17T02:16:45;102365.0;;;18.0;56.53
32452;BME280;45528;52.102;5.242;2022-07-17T02:20:20;102363.0;;;18.0;56.5
32452;BME280;45528;52.102;5.242;2022-07-17T02:22:07;102361.0;;;18.02;56.37
32452;BME280;45528;52.102;5.242;2022-07-17T02:23:55;102363.0;;;18.04;56.26
32452;BME280;45528;52.102;5.242;2022-07-17T02:25:42;102360.0;;;18.02;56.26
32452;BME280;45528;52.102;5.242;2022-07-17T02:27:30;102367.0;;;17.98;56.29
32452;BME280;45528;52.102;5.242;2022-07-17T02:29:17;102378.0;;;17.91;56.43
32452;BME280;45528;52.102;5.242;2022-07-17T02:32:51;102380.0;;;17.77;56.79
32452;BME280;45528;52.102;5.242;2022-07-17T02:34:38;102381.0;;;17.7;57.01
32452;BME280;45528;52.102;5.242;2022-07-17T02:36:24;102381.0;;;17.66;57.12
32452;BME280;45528;52.102;5.242;2022-07-17T02:38:11;102383.0;;;17.68;57.02
32452;BME280;45528;52.102;5.242;2022-07-17T02:39:58;102388.0;;;17.64;57.13
32452;BME280;45528;52.102;5.242;2022-07-17T02:41:45;102390.0;;;17.64;57.1
32452;BME280;45528;52.102;5.242;2022-07-17T02:45:24;102388.0;;;17.64;57.12
32452;BME280;45528;52.102;5.242;2022-07-17T02:47:11;102389.0;;;17.7;57.07
32452;BME280;45528;52.102;5.242;2022-07-17T02:48:58;102387.0;;;17.7;56.84
32452;BME280;45528;52.102;5.242;2022-07-17T02:50:45;102387.0;;;17.68;56.82
32452;BME280;45528;52.102;5.242;2022-07-17T02:52:31;102382.0;;;17.62;56.93
32452;BME280;45528;52.102;5.242;2022-07-17T02:54:18;102380.0;;;17.57;56.99
32452;BME280;45528;52.102;5.242;2022-07-17T02:57:53;102375.0;;;17.61;56.88
32452;BME280;45528;52.102;5.242;2022-07-17T02:59:40;102375.0;;;17.63;56.87
32452;BME280;45528;52.102;5.242;2022-07-17T03:01:28;102369.0;;;17.68;56.74
32452;BME280;45528;52.102;5.242;2022-07-17T03:03:15;102371.0;;;17.71;56.7
32452;BME280;45528;52.102;5.242;2022-07-17T03:05:01;102373.0;;;17.68;56.65
32452;BME280;45528;52.102;5.242;2022-07-17T03:08:36;102371.0;;;17.71;56.56
32452;BME280;45528;52.102;5.242;2022-07-17T03:10:22;102370.0;;;17.73;56.51
32452;BME280;45528;52.102;5.242;2022-07-17T03:12:09;102369.0;;;17.73;56.48
32452;BME280;45528;52.102;5.242;2022-07-17T03:13:56;102372.0;;;17.79;56.29
32452;BME280;45528;52.102;5.242;2022-07-17T03:15:43;102375.0;;;17.84;56.1
32452;BME280;45528;52.102;5.242;2022-07-17T03:17:30;102380.0;;;17.81;56.16
32452;BME280;45528;52.102;5.242;2022-07-17T03:21:04;102373.0;;;17.78;56.32
32452;BME280;45528;52.102;5.242;2022-07-17T03:22:51;102375.0;;;17.71;56.53
32452;BME280;45528;52.102;5.242;2022-07-17T03:24:38;102383.0;;;17.7;56.56
32452;BME280;45528;52.102;5.242;2022-07-17T03:26:25;102384.0;;;17.7;56.64
32452;BME280;45528;52.102;5.242;2022-07-17T03:28:12;102387.0;;;17.64;56.73
32452;BME280;45528;52.102;5.242;2022-07-17T03:29:59;102392.0;;;17.59;56.83
32452;BME280;45528;52.102;5.242;2022-07-17T03:33:34;102392.0;;;17.62;56.78
32452;BME280;45528;52.102;5.242;2022-07-17T03:35:21;102392.0;;;17.55;56.82
32452;BME280;45528;52.102;5.242;2022-07-17T03:37:08;102396.0;;;17.54;56.91
32452;BME280;45528;52.102;5.242;2022-07-17T03:38:55;102397.0;;;17.45;57.09
32452;BME280;45528;52.102;5.242;2022-07-17T03:40:41;102394.0;;;17.43;57.23
32452;BME280;45528;52.102;5.242;2022-07-17T03:42:28;102387.0;;;17.45;57.16
32452;BME280;45528;52.102;5.242;2022-07-17T03:46:01;102385.0;;;17.46;57.23
32452;BME280;45528;52.102;5.242;2022-07-17T03:47:48;102384.0;;;17.46;57.17
32452;BME280;45528;52.102;5.242;2022-07-17T03:49:35;102385.0;;;17.46;57.16
32452;BME280;45528;52.102;5.242;2022-07-17T03:51:22;102385.0;;;17.53;57.13
32452;BME280;45528;52.102;5.242;2022-07-17T03:53:10;102387.0;;;17.59;57.0
32452;BME280;45528;52.102;5.242;2022-07-17T03:56:44;102393.0;;;17.66;56.95
32452;BME280;45528;52.102;5.242;2022-07-17T03:58:30;102395.0;;;17.7;56.73
32452;BME280;45528;52.102;5.242;2022-07-17T04:00:17;102398.0;;;17.72;56.71
32452;BME280;45528;52.102;5.242;2022-07-17T04:02:04;102400.0;;;17.75;56.58
32452;BME280;45528;52.102;5.242;2022-07-17T04:03:51;102401.0;;;17.71;56.56
32452;BME280;45528;52.102;5.242;2022-07-17T04:05:39;102401.0;;;17.79;56.51
32452;BME280;45528;52.102;5.242;2022-07-17T04:09:14;102401.0;;;17.82;56.36
32452;BME280;45528;52.102;5.242;2022-07-17T04:11:01;102400.0;;;17.78;56.38
32452;BME280;45528;52.102;5.242;2022-07-17T04:12:48;102405.0;;;17.75;56.58
32452;BME280;45528;52.102;5.242;2022-07-17T04:14:35;102406.0;;;17.79;56.44
32452;BME280;45528;52.102;5.242;2022-07-17T04:16:23;102411.99999999999;;;17.75;56.53
32452;BME280;45528;52.102;5.242;2022-07-17T04:18:09;102419.0;;;17.77;56.54
32452;BME280;45528;52.102;5.242;2022-07-17T04:21:42;102417.0;;;17.81;56.39
32452;BME280;45528;52.102;5.242;2022-07-17T04:23:28;102415.00000000001;;;17.79;56.53
32452;BME280;45528;52.102;5.242;2022-07-17T04:25:16;102416.00000000001;;;17.75;56.77
32452;BME280;45528;52.102;5.242;2022-07-17T04:27:03;102411.99999999999;;;17.77;56.81
32452;BME280;45528;52.102;5.242;2022-07-17T04:28:50;102408.99999999999;;;17.77;56.88
32452;BME280;45528;52.102;5.242;2022-07-17T04:30:38;102413.00000000001;;;17.82;56.73
32452;BME280;45528;52.102;5.242;2022-07-17T04:34:10;102416.00000000001;;;17.89;56.58
32452;BME280;45528;52.102;5.242;2022-07-17T04:35:58;102417.0;;;17.87;56.59
32452;BME280;45528;52.102;5.242;2022-07-17T04:37:45;102415.00000000001;;;17.88;56.7
32452;BME280;45528;52.102;5.242;2022-07-17T04:39:32;102417.0;;;17.87;56.74
32452;BME280;45528;52.102;5.242;2022-07-17T04:41:18;102417.0;;;17.91;56.69
32452;BME280;45528;52.102;5.242;2022-07-17T04:44:54;102417.0;;;17.96;56.54
32452;BME280;45528;52.102;5.242;2022-07-17T04:46:40;102416.00000000001;;;18.02;56.54
32452;BME280;45528;52.102;5.242;2022-07-17T04:48:27;102419.0;;;18.05;56.35
32452;BME280;45528;52.102;5.242;2022-07-17T04:50:14;102417.0;;;18.14;56.23
32452;BME280;45528;52.102;5.242;2022-07-17T04:52:01;102407.0;;;18.16;56.39
32452;BME280;45528;52.102;5.242;2022-07-17T04:57:22;102393.0;;;18.2;56.34
32452;BME280;45528;52.102;5.242;2022-07-17T04:59:09;102391.0;;;18.27;56.32
32452;BME280;45528;52.102;5.242;2022-07-17T05:00:56;102387.0;;;18.34;56.29
32452;BME280;45528;52.102;5.242;2022-07-17T05:02:43;102385.0;;;18.43;56.01
32452;BME280;45528;52.102;5.242;2022-07-17T05:04:30;102388.0;;;18.5;55.75
32452;BME280;45528;52.102;5.242;2022-07-17T05:06:17;102395.0;;;18.61;55.28
32452;BME280;45528;52.102;5.242;2022-07-17T05:09:50;102392.0;;;18.68;55.01
32452;BME280;45528;52.102;5.242;2022-07-17T05:11:37;102386.0;;;18.75;54.99
32452;BME280;45528;52.102;5.242;2022-07-17T05:13:25;102388.0;;;18.84;54.67
32452;BME280;45528;52.102;5.242;2022-07-17T05:15:12;102396.0;;;18.91;54.66
32452;BME280;45528;52.102;5.242;2022-07-17T05:16:59;102397.0;;;19.04;54.46
32452;BME280;45528;52.102;5.242;2022-07-17T05:18:46;102393.0;;;19.18;54.26
32452;BME280;45528;52.102;5.242;2022-07-17T05:22:21;102393.0;;;19.34;53.94
32452;BME280;45528;52.102;5.242;2022-07-17T05:24:08;102389.0;;;19.43;54.01
32452;BME280;45528;52.102;5.242;2022-07-17T05:25:55;102383.0;;;19.57;52.5
32452;BME280;45528;52.102;5.242;2022-07-17T05:27:42;102380.0;;;19.84;52.61
32452;BME280;45528;52.102;5.242;2022-07-17T05:29:29;102377.0;;;20.03;52.24
32452;BME280;45528;52.102;5.242;2022-07-17T05:31:15;102380.0;;;20.22;51.64
32452;BME280;45528;52.102;5.242;2022-07-17T05:34:48;102384.0;;;20.43;51.47
32452;BME280;45528;52.102;5.242;2022-07-17T05:36:36;102384.0;;;20.55;50.31
32452;BME280;45528;52.102;5.242;2022-07-17T05:38:23;102390.0;;;20.66;50.24
32452;BME280;45528;52.102;5.242;2022-07-17T05:40:10;102391.0;;;20.8;50.05
32452;BME280;45528;52.102;5.242;2022-07-17T05:41:57;102389.0;;;20.84;49.63
32452;BME280;45528;52.102;5.242;2022-07-17T05:45:31;102392.0;;;21.03;48.94
32452;BME280;45528;52.102;5.242;2022-07-17T05:47:17;102399.0;;;21.18;48.73
32452;BME280;45528;52.102;5.242;2022-07-17T05:49:04;102406.0;;;21.32;48.47
32452;BME280;45528;52.102;5.242;2022-07-17T05:50:50;102408.0;;;21.34;48.1
32452;BME280;45528;52.102;5.242;2022-07-17T05:52:37;102413.00000000001;;;21.34;48.26
32452;BME280;45528;52.102;5.242;2022-07-17T05:54:24;102405.0;;;21.35;48.87
32452;BME280;45528;52.102;5.242;2022-07-17T05:57:58;102400.0;;;21.31;48.92
32452;BME280;45528;52.102;5.242;2022-07-17T05:59:45;102405.0;;;21.33;48.59
32452;BME280;45528;52.102;5.242;2022-07-17T06:01:32;102406.0;;;21.41;48.62
32452;BME280;45528;52.102;5.242;2022-07-17T06:03:20;102405.0;;;21.57;48.83
32452;BME280;45528;52.102;5.242;2022-07-17T06:05:08;102403.0;;;21.64;48.88
32452;BME280;45528;52.102;5.242;2022-07-17T06:06:56;102409.99999999999;;;21.77;48.79
32452;BME280;45528;52.102;5.242;2022-07-17T06:10:30;102408.99999999999;;;21.86;48.7
32452;BME280;45528;52.102;5.242;2022-07-17T06:12:17;102419.0;;;21.96;48.12
32452;BME280;45528;52.102;5.242;2022-07-17T06:14:04;102439.00000000001;;;22.1;47.53
32452;BME280;45528;52.102;5.242;2022-07-17T06:15:51;102442.0;;;22.25;46.8
32452;BME280;45528;52.102;5.242;2022-07-17T06:17:39;102442.0;;;22.32;45.72
32452;BME280;45528;52.102;5.242;2022-07-17T06:19:26;102447.0;;;22.41;46.02
32452;BME280;45528;52.102;5.242;2022-07-17T06:23:00;102445.0;;;22.46;46.15
32452;BME280;45528;52.102;5.242;2022-07-17T06:24:47;102449.0;;;22.45;45.89
32452;BME280;45528;52.102;5.242;2022-07-17T06:26:33;102449.0;;;22.55;45.21
32452;BME280;45528;52.102;5.242;2022-07-17T06:28:21;102452.0;;;22.63;45.35
32452;BME280;45528;52.102;5.242;2022-07-17T06:30:10;102456.0;;;22.65;45.13
32452;BME280;45528;52.102;5.242;2022-07-17T06:31:57;102453.0;;;22.87;44.73
32452;BME280;45528;52.102;5.242;2022-07-17T06:35:33;102457.0;;;22.87;45.35
32452;BME280;45528;52.102;5.242;2022-07-17T06:37:20;102459.99999999999;;;23.02;45.14
32452;BME280;45528;52.102;5.242;2022-07-17T06:39:07;102467.0;;;23.1;43.78
32452;BME280;45528;52.102;5.242;2022-07-17T06:40:53;102467.0;;;23.15;43.78
32452;BME280;45528;52.102;5.242;2022-07-17T06:42:40;102466.00000000001;;;23.21;43.79
32452;BME280;45528;52.102;5.242;2022-07-17T06:46:15;102468.0;;;23.34;44.24
32452;BME280;45528;52.102;5.242;2022-07-17T06:48:02;102470.0;;;23.28;44.04
32452;BME280;45528;52.102;5.242;2022-07-17T06:49:49;102466.00000000001;;;23.28;44.29
32452;BME280;45528;52.102;5.242;2022-07-17T06:51:35;102465.00000000001;;;23.36;44.08
32452;BME280;45528;52.102;5.242;2022-07-17T06:53:22;102466.00000000001;;;23.41;43.17
32452;BME280;45528;52.102;5.242;2022-07-17T06:55:09;102464.00000000001;;;23.51;42.78
32452;BME280;45528;52.102;5.242;2022-07-17T06:58:43;102469.0;;;23.62;42.62
32452;BME280;45528;52.102;5.242;2022-07-17T07:00:30;102473.0;;;23.59;41.26
32452;BME280;45528;52.102;5.242;2022-07-17T07:02:17;102468.0;;;23.47;41.68
32452;BME280;45528;52.102;5.242;2022-07-17T07:04:04;102475.0;;;23.59;42.33
32452;BME280;45528;52.102;5.242;2022-07-17T07:05:50;102479.0;;;23.63;41.11
32452;BME280;45528;52.102;5.242;2022-07-17T07:07:37;102473.0;;;23.73;41.9
32452;BME280;45528;52.102;5.242;2022-07-17T07:11:12;102475.0;;;23.82;41.76
32452;BME280;45528;52.102;5.242;2022-07-17T07:12:58;102466.00000000001;;;24.0;41.5
32452;BME280;45528;52.102;5.242;2022-07-17T07:14:45;102464.00000000001;;;24.11;42.08
32452;BME280;45528;52.102;5.242;2022-07-17T07:16:33;102465.00000000001;;;24.3;41.03
32452;BME280;45528;52.102;5.242;2022-07-17T07:18:21;102468.0;;;24.19;40.39
32452;BME280;45528;52.102;5.242;2022-07-17T07:20:09;102474.0;;;24.12;41.29
32452;BME280;45528;52.102;5.242;2022-07-17T07:23:44;102470.0;;;24.2;41.87
32452;BME280;45528;52.102;5.242;2022-07-17T07:25:31;102470.0;;;24.31;41.65
32452;BME280;45528;52.102;5.242;2022-07-17T07:27:17;102468.0;;;24.39;41.73
32452;BME280;45528;52.102;5.242;2022-07-17T07:29:04;102464.00000000001;;;24.66;40.44
32452;BME280;45528;52.102;5.242;2022-07-17T07:30:51;102455.0;;;24.72;40.1
32452;BME280;45528;52.102;5.242;2022-07-17T07:32:39;102458.0;;;24.67;40.47
32452;BME280;45528;52.102;5.242;2022-07-17T07:36:13;102465.00000000001;;;24.72;41.08
32452;BME280;45528;52.102;5.242;2022-07-17T07:38:01;102470.0;;;24.82;40.69
32452;BME280;45528;52.102;5.242;2022-07-17T07:39:48;102474.0;;;24.94;40.51
32452;BME280;45528;52.102;5.242;2022-07-17T07:41:35;102479.0;;;24.93;39.83
32452;BME280;45528;52.102;5.242;2022-07-17T07:43:24;102474.0;;;24.75;39.9
32452;BME280;45528;52.102;5.242;2022-07-17T07:45:10;102470.0;;;24.6;40.96
32452;BME280;45528;52.102;5.242;2022-07-17T07:48:44;102473.0;;;24.71;40.89
32452;BME280;45528;52.102;5.242;2022-07-17T07:50:31;102474.0;;;24.82;40.81
32452;BME280;45528;52.102;5.242;2022-07-17T07:52:19;102478.0;;;25.11;40.92
32452;BME280;45528;52.102;5.242;2022-07-17T07:54:06;102480.0;;;25.31;40.17
32452;BME280;45528;52.102;5.242;2022-07-17T07:55:53;102479.0;;;25.42;39.17
32452;BME280;45528;52.102;5.242;2022-07-17T07:59:28;102479.0;;;25.54;39.06
32452;BME280;45528;52.102;5.242;2022-07-17T08:01:15;102478.0;;;25.75;39.04
32452;BME280;45528;52.102;5.242;2022-07-17T08:03:02;102476.0;;;25.71;38.74
32452;BME280;45528;52.102;5.242;2022-07-17T08:04:50;102477.0;;;25.69;38.62
32452;BME280;45528;52.102;5.242;2022-07-17T08:06:38;102477.0;;;25.86;38.5
32452;BME280;45528;52.102;5.242;2022-07-17T08:08:24;102478.0;;;25.85;38.67
32452;BME280;45528;52.102;5.242;2022-07-17T08:11:59;102479.0;;;25.77;38.61
32452;BME280;45528;52.102;5.242;2022-07-17T08:13:46;102477.0;;;25.77;39.14
32452;BME280;45528;52.102;5.242;2022-07-17T08:15:33;102475.0;;;25.88;38.87
32452;BME280;45528;52.102;5.242;2022-07-17T08:17:20;102481.0;;;25.99;38.31
32452;BME280;45528;52.102;5.242;2022-07-17T08:19:07;102479.0;;;25.88;37.9
32452;BME280;45528;52.102;5.242;2022-07-17T08:20:54;102476.0;;;25.85;38.78
32452;BME280;45528;52.102;5.242;2022-07-17T08:24:32;102475.0;;;26.0;38.67
32452;BME280;45528;52.102;5.242;2022-07-17T08:26:18;102469.0;;;25.9;38.37
32452;BME280;45528;52.102;5.242;2022-07-17T08:28:05;102471.0;;;25.95;38.96
32452;BME280;45528;52.102;5.242;2022-07-17T08:29:52;102467.0;;;26.08;38.33
32452;BME280;45528;52.102;5.242;2022-07-17T08:31:39;102466.00000000001;;;26.04;37.89
32452;BME280;45528;52.102;5.242;2022-07-17T08:33:26;102465.00000000001;;;26.2;37.37
32452;BME280;45528;52.102;5.242;2022-07-17T08:37:00;102463.00000000001;;;26.18;38.06
32452;BME280;45528;52.102;5.242;2022-07-17T08:38:47;102465.00000000001;;;26.29;37.65
32452;BME280;45528;52.102;5.242;2022-07-17T08:40:37;102468.0;;;26.24;37.83
32452;BME280;45528;52.102;5.242;2022-07-17T08:42:32;102474.0;;;26.45;38.01
32452;BME280;45528;52.102;5.242;2022-07-17T08:44:18;102471.0;;;26.36;37.03
32452;BME280;45528;52.102;5.242;2022-07-17T08:46:05;102471.0;;;26.35;37.56
32452;BME280;45528;52.102;5.242;2022-07-17T08:49:44;102469.0;;;26.5;37.57
32452;BME280;45528;52.102;5.242;2022-07-17T08:51:33;102467.0;;;26.86;37.56
32452;BME280;45528;52.102;5.242;2022-07-17T08:53:21;102464.00000000001;;;26.8;36.57
32452;BME280;45528;52.102;5.242;2022-07-17T08:55:09;102464.00000000001;;;26.92;36.96
32452;BME280;45528;52.102;5.242;2022-07-17T08:56:58;102458.99999999999;;;27.06;36.12
32452;BME280;45528;52.102;5.242;2022-07-17T08:58:44;102457.0;;;27.09;36.11
32452;BME280;45528;52.102;5.242;2022-07-17T09:00:31;102461.99999999999;;;27.14;36.49
32452;BME280;45528;52.102;5.242;2022-07-17T09:04:06;102454.0;;;26.92;36.17
32452;BME280;45528;52.102;5.242;2022-07-17T09:05:53;102455.0;;;26.99;35.89
32452;BME280;45528;52.102;5.242;2022-07-17T09:07:45;102457.0;;;27.14;36.65
32452;BME280;45528;52.102;5.242;2022-07-17T09:09:33;102463.00000000001;;;27.34;36.39
32452;BME280;45528;52.102;5.242;2022-07-17T09:11:20;102459.99999999999;;;27.3;36.28
32452;BME280;45528;52.102;5.242;2022-07-17T09:13:17;102461.99999999999;;;27.35;36.06
32452;BME280;45528;52.102;5.242;2022-07-17T09:15:16;102456.0;;;27.5;35.6
32452;BME280;45528;52.102;5.242;2022-07-17T09:18:53;102456.0;;;27.48;35.42
32452;BME280;45528;52.102;5.242;2022-07-17T09:20:45;102455.0;;;27.57;35.79
32452;BME280;45528;52.102;5.242;2022-07-17T09:22:33;102457.0;;;27.58;35.19
32452;BME280;45528;52.102;5.242;2022-07-17T09:24:20;102453.0;;;27.52;34.75
32452;BME280;45528;52.102;5.242;2022-07-17T09:26:07;102453.0;;;27.52;35.43
32452;BME280;45528;52.102;5.242;2022-07-17T09:27:56;102463.00000000001;;;27.64;36.14
32452;BME280;45528;52.102;5.242;2022-07-17T09:31:40;102458.99999999999;;;27.78;35.49
32452;BME280;45528;52.102;5.242;2022-07-17T09:33:27;102458.99999999999;;;27.95;35.46
32452;BME280;45528;52.102;5.242;2022-07-17T09:35:16;102467.0;;;27.77;34.64
32452;BME280;45528;52.102;5.242;2022-07-17T09:37:03;102469.0;;;28.04;34.31
32452;BME280;45528;52.102;5.242;2022-07-17T09:38:53;102474.0;;;27.89;34.17
32452;BME280;45528;52.102;5.242;2022-07-17T09:41:14;102476.0;;;27.81;34.54
32452;BME280;45528;52.102;5.242;2022-07-17T09:43:02;102475.0;;;27.96;33.69
32452;BME280;45528;52.102;5.242;2022-07-17T09:44:58;102472.0;;;27.9;33.71
32452;BME280;45528;52.102;5.242;2022-07-17T09:46:45;102469.0;;;27.84;33.92
32452;BME280;45528;52.102;5.242;2022-07-17T09:50:27;102459.99999999999;;;28.2;34.54
32452;BME280;45528;52.102;5.242;2022-07-17T09:52:15;102458.99999999999;;;28.39;34.42
32452;BME280;45528;52.102;5.242;2022-07-17T09:54:03;102454.0;;;28.56;34.35
32452;BME280;45528;52.102;5.242;2022-07-17T09:55:54;102452.0;;;28.59;33.89
32452;BME280;45528;52.102;5.242;2022-07-17T09:57:43;102448.0;;;28.63;33.36
32452;BME280;45528;52.102;5.242;2022-07-17T09:59:35;102448.0;;;28.67;33.25
32452;BME280;45528;52.102;5.242;2022-07-17T10:01:23;102449.0;;;28.85;32.92
32452;BME280;45528;52.102;5.242;2022-07-17T10:04:57;102451.0;;;28.86;32.85
32452;BME280;45528;52.102;5.242;2022-07-17T10:06:45;102455.0;;;28.85;32.85
32452;BME280;45528;52.102;5.242;2022-07-17T10:08:33;102459.99999999999;;;28.93;33.62
32452;BME280;45528;52.102;5.242;2022-07-17T10:10:20;102453.0;;;28.8;34.07
32452;BME280;45528;52.102;5.242;2022-07-17T10:12:08;102454.0;;;28.74;33.22
32452;BME280;45528;52.102;5.242;2022-07-17T10:14:02;102456.0;;;28.7;33.49
32452;BME280;45528;52.102;5.242;2022-07-17T10:15:50;102451.0;;;28.5;33.71
32452;BME280;45528;52.102;5.242;2022-07-17T10:19:24;102448.0;;;28.37;33.6
32452;BME280;45528;52.102;5.242;2022-07-17T10:21:13;102447.0;;;28.72;33.31
32452;BME280;45528;52.102;5.242;2022-07-17T10:23:11;102448.0;;;28.95;33.28
32452;BME280;45528;52.102;5.242;2022-07-17T10:25:04;102448.0;;;29.23;32.96
32452;BME280;45528;52.102;5.242;2022-07-17T10:26:51;102445.0;;;29.09;32.43
32452;BME280;45528;52.102;5.242;2022-07-17T10:28:40;102448.0;;;29.31;32.46
32452;BME280;45528;52.102;5.242;2022-07-17T10:30:30;102451.0;;;29.05;32.28
32452;BME280;45528;52.102;5.242;2022-07-17T10:34:06;102458.0;;;29.0;32.64
32452;BME280;45528;52.102;5.242;2022-07-17T10:35:53;102455.0;;;28.93;32.86
32452;BME280;45528;52.102;5.242;2022-07-17T10:37:40;102458.99999999999;;;29.19;32.81
32452;BME280;45528;52.102;5.242;2022-07-17T10:39:28;102458.99999999999;;;29.35;32.74
32452;BME280;45528;52.102;5.242;2022-07-17T10:41:19;102458.0;;;29.35;31.89
32452;BME280;45528;52.102;5.242;2022-07-17T10:43:07;102455.0;;;29.41;31.73
32452;BME280;45528;52.102;5.242;2022-07-17T10:46:53;102455.0;;;29.46;32.53
32452;BME280;45528;52.102;5.242;2022-07-17T10:48:40;102453.0;;;29.64;32.58
32452;BME280;45528;52.102;5.242;2022-07-17T10:50:28;102451.0;;;29.62;32.1
32452;BME280;45528;52.102;5.242;2022-07-17T10:52:17;102451.0;;;29.37;31.25
32452;BME280;45528;52.102;5.242;2022-07-17T10:54:03;102445.0;;;29.65;31.6
32452;BME280;45528;52.102;5.242;2022-07-17T10:55:52;102449.0;;;29.25;31.4